Skyline Lakes, New Jersey
Current Conditions -  °F | °C
As of 4:53 PM on Tuesday 25 Nov 2014 (Local Time) from KCDW Reporting Station
Clear Clear  
Wind Chill: 51°   Ceiling: Unl
Heat Index: 51°   Visibility: 10mi
Dew Point: 27°   Wind: 3mph
Humidity: 39%   Direction: 240°WSW
Pressure: 30.03"   Gusts: NA
Location:  41.1036°N, 74.2801°W
Report Text: KCDW 252153Z 24003KT 10SM CLR 11/M03 A3003 RMK AO2 SLP173 T01061028
Loading
Personal Weather Stations






























Interactive Weather Map New forecast layout! Learn more

10-Day Weather Forecast

Advertisements
Track Severe Weather on mobile